createdAt,value
2023-05-12T00:00:41.072Z,98407.00
2023-05-12T00:03:12.234Z,98401.00
2023-05-12T00:05:43.173Z,98409.00
2023-05-12T00:08:14.094Z,98400.00
2023-05-12T00:10:45.056Z,98396.00
2023-05-12T00:13:16.354Z,98390.00
2023-05-12T00:15:47.265Z,98390.00
2023-05-12T00:18:18.236Z,98389.00
2023-05-12T00:20:49.162Z,98390.00
2023-05-12T00:23:20.018Z,98388.00
2023-05-12T00:25:51.129Z,98396.00
2023-05-12T00:28:22.018Z,98384.00
2023-05-12T00:30:53.107Z,98381.00
2023-05-12T00:33:23.996Z,98387.00
2023-05-12T00:35:54.925Z,98383.00
2023-05-12T00:38:25.975Z,98382.00
2023-05-12T00:40:56.822Z,98389.00
2023-05-12T00:43:27.708Z,98383.00
2023-05-12T00:45:58.832Z,98378.00
2023-05-12T00:48:29.931Z,98394.00
2023-05-12T00:51:02.297Z,98383.00
2023-05-12T00:53:47.645Z,98393.00
2023-05-12T00:56:20.308Z,98380.00
2023-05-12T00:58:51.227Z,98395.00
2023-05-12T01:01:22.230Z,98384.00
2023-05-12T01:03:53.331Z,98391.00
2023-05-12T01:06:54.864Z,98411.00
2023-05-12T01:09:26.850Z,98384.00
2023-05-12T01:11:57.740Z,98384.00
2023-05-12T01:14:28.622Z,98385.00
2023-05-12T01:17:03.712Z,98380.00
2023-05-12T01:19:42.603Z,98376.00
2023-05-12T01:22:13.774Z,98378.00
2023-05-12T01:24:55.160Z,98376.00
2023-05-12T01:27:27.626Z,98383.00
2023-05-12T01:30:01.129Z,98378.00
2023-05-12T01:32:32.188Z,98385.00
2023-05-12T01:35:03.209Z,98382.00
2023-05-12T01:37:34.161Z,98384.00
2023-05-12T01:40:05.896Z,98384.00
2023-05-12T01:42:40.734Z,98376.00
2023-05-12T01:45:11.857Z,98377.00
2023-05-12T01:47:42.899Z,98385.00
2023-05-12T01:50:13.813Z,98383.00
2023-05-12T01:52:45.779Z,98386.00
2023-05-12T01:55:17.420Z,98384.00
2023-05-12T01:57:48.318Z,98378.00
2023-05-12T02:00:19.534Z,98382.00
2023-05-12T02:02:50.834Z,98386.00
2023-05-12T02:05:22.267Z,98377.00
2023-05-12T02:07:53.237Z,98379.00
2023-05-12T02:10:24.119Z,98380.00
2023-05-12T02:12:55.008Z,98382.00
2023-05-12T02:15:25.927Z,98386.00
2023-05-12T02:17:58.352Z,98386.00
2023-05-12T02:20:29.904Z,98383.00
2023-05-12T02:23:02.574Z,98381.00
2023-05-12T02:25:33.562Z,98380.00
2023-05-12T02:28:04.852Z,98374.00
2023-05-12T02:30:35.829Z,98382.00
2023-05-12T02:33:06.730Z,98375.00
2023-05-12T02:35:37.997Z,98382.00
2023-05-12T02:38:08.881Z,98379.00
2023-05-12T02:40:39.911Z,98364.00
2023-05-12T02:43:10.813Z,98371.00
2023-05-12T02:45:41.809Z,98374.00
2023-05-12T02:48:12.829Z,98377.00
2023-05-12T02:50:43.773Z,98376.00
2023-05-12T02:53:14.672Z,98368.00
2023-05-12T02:55:45.574Z,98377.00
2023-05-12T02:58:16.483Z,98374.00
2023-05-12T03:00:50.161Z,98377.00
2023-05-12T03:03:25.245Z,98371.00
2023-05-12T03:05:56.229Z,98372.00
2023-05-12T03:08:27.380Z,98373.00
2023-05-12T03:10:58.376Z,98373.00
2023-05-12T03:13:29.417Z,98378.00
2023-05-12T03:16:01.588Z,98390.00
2023-05-12T03:18:32.761Z,98384.00
2023-05-12T03:21:03.771Z,98377.00
2023-05-12T03:23:35.456Z,98377.00
2023-05-12T03:26:06.398Z,98374.00
2023-05-12T03:28:37.705Z,98381.00
2023-05-12T03:31:08.683Z,98376.00
2023-05-12T03:33:39.734Z,98375.00
2023-05-12T03:36:10.626Z,98377.00
2023-05-12T03:38:41.495Z,98375.00
2023-05-12T03:41:12.432Z,98376.00
2023-05-12T03:43:43.452Z,98379.00
2023-05-12T03:46:14.521Z,98380.00
2023-05-12T03:48:45.507Z,98381.00
2023-05-12T03:51:16.497Z,98373.00
2023-05-12T03:53:47.882Z,98377.00
2023-05-12T03:56:18.793Z,98368.00
2023-05-12T03:58:49.817Z,98374.00
2023-05-12T04:01:20.809Z,98376.00
2023-05-12T04:03:51.875Z,98369.00
2023-05-12T04:06:22.854Z,98379.00
2023-05-12T04:08:53.814Z,98368.00
2023-05-12T04:11:24.673Z,98364.00
2023-05-12T04:13:55.580Z,98362.00
2023-05-12T04:16:26.552Z,98370.00
2023-05-12T04:18:57.624Z,98365.00
2023-05-12T04:21:28.644Z,98366.00
2023-05-12T04:23:59.575Z,98372.00
2023-05-12T04:26:30.589Z,98372.00
2023-05-12T04:29:01.446Z,98382.00
2023-05-12T04:31:32.400Z,98381.00
2023-05-12T04:34:03.301Z,98384.00
2023-05-12T04:36:34.248Z,98386.00
2023-05-12T04:39:05.514Z,98380.00
2023-05-12T04:41:36.632Z,98385.00
2023-05-12T04:44:07.944Z,98387.00
2023-05-12T04:46:38.929Z,98392.00
2023-05-12T04:49:10.097Z,98412.00
2023-05-12T04:51:42.943Z,98391.00
2023-05-12T04:54:14.183Z,98396.00
2023-05-12T04:56:45.082Z,98390.00
2023-05-12T04:59:16.140Z,98386.00
2023-05-12T05:01:47.180Z,98387.00
2023-05-12T05:04:18.265Z,98397.00
2023-05-12T05:06:49.108Z,98414.00
2023-05-12T05:09:20.005Z,98399.00
2023-05-12T05:11:51.001Z,98396.00
2023-05-12T05:14:22.317Z,98403.00
2023-05-12T05:16:54.220Z,98395.00
2023-05-12T05:19:39.192Z,98404.00
2023-05-12T05:22:16.890Z,98398.00
2023-05-12T05:24:47.797Z,98399.00
2023-05-12T05:27:18.948Z,98406.00
2023-05-12T05:29:50.124Z,98403.00
2023-05-12T05:32:21.622Z,98408.00
2023-05-12T05:34:52.586Z,98408.00
2023-05-12T05:37:23.515Z,98413.00
2023-05-12T05:39:54.451Z,98404.00
2023-05-12T05:42:25.918Z,98410.00
2023-05-12T05:44:56.969Z,98404.00
2023-05-12T05:47:28.480Z,98414.00
2023-05-12T05:49:59.436Z,98413.00
2023-05-12T05:52:30.415Z,98412.00
2023-05-12T05:55:01.322Z,98411.00
2023-05-12T05:57:32.189Z,98413.00
2023-05-12T06:00:04.998Z,98418.00
2023-05-12T06:02:36.996Z,98413.00
2023-05-12T06:05:09.136Z,98417.00
2023-05-12T06:07:40.052Z,98418.00
2023-05-12T06:10:11.537Z,98410.00
2023-05-12T06:12:43.257Z,98417.00
2023-05-12T06:15:14.173Z,98423.00
2023-05-12T06:17:45.427Z,98432.00
2023-05-12T06:20:16.493Z,98424.00
2023-05-12T06:22:47.490Z,98433.00
2023-05-12T06:25:18.769Z,98430.00
2023-05-12T06:27:53.069Z,98427.00
2023-05-12T06:30:23.992Z,98429.00
2023-05-12T06:32:55.058Z,98433.00
2023-05-12T06:35:26.074Z,98429.00
2023-05-12T06:37:57.022Z,98434.00
2023-05-12T06:40:28.096Z,98435.00
2023-05-12T06:42:58.968Z,98438.00
2023-05-12T06:45:30.226Z,98445.00
2023-05-12T06:48:02.088Z,98432.00
2023-05-12T06:50:36.296Z,98436.00
2023-05-12T06:53:08.156Z,98438.00
2023-05-12T06:55:39.348Z,98436.00
2023-05-12T06:58:10.240Z,98434.00
2023-05-12T07:00:41.179Z,98435.00
2023-05-12T07:03:12.173Z,98438.00
2023-05-12T07:05:43.199Z,98439.00
2023-05-12T07:08:14.164Z,98445.00
2023-05-12T07:10:45.090Z,98430.00
2023-05-12T07:13:16.149Z,98438.00
2023-05-12T07:15:47.125Z,98434.00
2023-05-12T07:18:18.048Z,98437.00
2023-05-12T07:20:49.232Z,98438.00
2023-05-12T07:23:20.317Z,98436.00
2023-05-12T07:25:51.168Z,98440.00
2023-05-12T07:28:22.072Z,98431.00
2023-05-12T07:30:53.018Z,98432.00
2023-05-12T07:33:23.990Z,98454.00
2023-05-12T07:35:54.994Z,98431.00
2023-05-12T07:38:25.984Z,98431.00
2023-05-12T07:40:57.572Z,98430.00
2023-05-12T07:43:28.439Z,98424.00
2023-05-12T07:46:01.109Z,98429.00
2023-05-12T07:48:32.018Z,98425.00
2023-05-12T07:51:04.130Z,98435.00
2023-05-12T07:53:35.544Z,98423.00
2023-05-12T07:56:08.458Z,98427.00
2023-05-12T07:58:39.456Z,98421.00
2023-05-12T08:01:10.525Z,98418.00
2023-05-12T08:03:41.626Z,98425.00
2023-05-12T08:06:12.644Z,98421.00
2023-05-12T08:08:43.852Z,98421.00
2023-05-12T08:11:14.836Z,98421.00
2023-05-12T08:13:47.119Z,98424.00
2023-05-12T08:16:18.384Z,98415.00
2023-05-12T08:18:49.376Z,98411.00
2023-05-12T08:21:20.447Z,98417.00
2023-05-12T08:23:51.402Z,98439.00
2023-05-12T08:26:22.558Z,98421.00
2023-05-12T08:28:53.450Z,98416.00
2023-05-12T08:31:24.634Z,98410.00
2023-05-12T08:34:09.034Z,98417.00
2023-05-12T08:36:42.168Z,98422.00
2023-05-12T08:39:13.394Z,98416.00
2023-05-12T08:42:03.412Z,98415.00
2023-05-12T08:44:34.455Z,98435.00
2023-05-12T08:47:06.922Z,98441.00
2023-05-12T08:49:40.483Z,98423.00
2023-05-12T08:52:14.084Z,98427.00
2023-05-12T08:54:55.039Z,98424.00
2023-05-12T08:57:29.585Z,98423.00
2023-05-12T09:00:04.840Z,98427.00
2023-05-12T09:02:51.972Z,98425.00
2023-05-12T09:05:24.849Z,98432.00
2023-05-12T09:07:56.834Z,98426.00
2023-05-12T09:13:40.430Z,98427.00
2023-05-12T09:16:13.410Z,98432.00
2023-05-12T09:18:57.150Z,98428.00
2023-05-12T09:21:28.969Z,98429.00
2023-05-12T09:24:07.628Z,98426.00
2023-05-12T09:26:51.287Z,98426.00
2023-05-12T09:29:31.424Z,98438.00
2023-05-12T09:32:04.379Z,98428.00
2023-05-12T09:34:38.676Z,98426.00
2023-05-12T09:37:10.028Z,98422.00
2023-05-12T09:39:40.928Z,98426.00
2023-05-12T09:42:12.808Z,98418.00
2023-05-12T09:44:44.312Z,98419.00
2023-05-12T09:47:16.054Z,98425.00
2023-05-12T09:49:52.206Z,98427.00
2023-05-12T09:52:23.554Z,98447.00
2023-05-12T09:54:54.493Z,98424.00
2023-05-12T09:57:26.314Z,98431.00
2023-05-12T09:59:57.571Z,98421.00
2023-05-12T10:02:28.760Z,98422.00
2023-05-12T10:05:06.277Z,98418.00
2023-05-12T10:07:37.527Z,98423.00
2023-05-12T10:10:10.134Z,98422.00
2023-05-12T10:12:42.053Z,98427.00
2023-05-12T10:15:14.180Z,98426.00
2023-05-12T10:17:45.855Z,98432.00
2023-05-12T10:20:17.536Z,98424.00
2023-05-12T10:22:49.997Z,98425.00
2023-05-12T10:25:21.549Z,98428.00
2023-05-12T10:27:54.148Z,98433.00
2023-05-12T10:30:25.377Z,98422.00
2023-05-12T10:32:57.609Z,98437.00
2023-05-12T10:35:39.945Z,98438.00
2023-05-12T10:38:13.830Z,98435.00
2023-05-12T10:41:01.137Z,98436.00
2023-05-12T10:43:42.857Z,98430.00
2023-05-12T10:46:17.424Z,98434.00
2023-05-12T10:49:06.081Z,98428.00
2023-05-12T10:51:43.170Z,98437.00
2023-05-12T10:54:22.892Z,98433.00
2023-05-12T10:56:59.865Z,98435.00
2023-05-12T10:59:32.180Z,98426.00
2023-05-12T11:02:17.280Z,98431.00
2023-05-12T11:04:51.616Z,98435.00
2023-05-12T11:07:32.832Z,98439.00
2023-05-12T11:10:07.616Z,98437.00
2023-05-12T11:12:38.924Z,98431.00
2023-05-12T11:15:10.297Z,98437.00
2023-05-12T11:17:41.545Z,98443.00
2023-05-12T11:20:23.772Z,98443.00
2023-05-12T11:22:55.088Z,98444.00
2023-05-12T11:25:28.400Z,98452.00
2023-05-12T11:27:59.316Z,98447.00
2023-05-12T11:30:30.239Z,98444.00
2023-05-12T11:33:04.478Z,98440.00
2023-05-12T11:35:35.613Z,98441.00
2023-05-12T11:38:18.859Z,98447.00
2023-05-12T11:40:50.108Z,98444.00
2023-05-12T11:43:22.808Z,98461.00
2023-05-12T11:45:55.419Z,98447.00
2023-05-12T11:48:36.962Z,98448.00
2023-05-12T11:51:08.334Z,98449.00
2023-05-12T11:53:41.184Z,98446.00
2023-05-12T11:56:19.783Z,98448.00
2023-05-12T11:58:58.364Z,98446.00
2023-05-12T12:01:29.336Z,98449.00
2023-05-12T12:04:00.526Z,98445.00
2023-05-12T12:06:31.514Z,98450.00
2023-05-12T12:09:02.421Z,98451.00
2023-05-12T12:11:34.722Z,98458.00
2023-05-12T12:14:05.998Z,98449.00
2023-05-12T12:16:36.983Z,98445.00
2023-05-12T12:19:08.846Z,98451.00
2023-05-12T12:21:39.915Z,98454.00
2023-05-12T12:24:10.912Z,98454.00
2023-05-12T12:26:41.802Z,98455.00
2023-05-12T12:29:12.969Z,98460.00
2023-05-12T12:31:44.215Z,98455.00
2023-05-12T12:34:15.334Z,98469.00
2023-05-12T12:36:47.788Z,98462.00
2023-05-12T12:39:19.977Z,98460.00
2023-05-12T12:41:51.050Z,98454.00
2023-05-12T12:44:22.168Z,98463.00
2023-05-12T12:46:53.106Z,98454.00
2023-05-12T12:49:24.047Z,98445.00
2023-05-12T12:51:55.501Z,98450.00
2023-05-12T12:54:29.478Z,98461.00
2023-05-12T12:57:00.402Z,98459.00
2023-05-12T12:59:31.320Z,98458.00
2023-05-12T13:02:02.722Z,98463.00
2023-05-12T13:04:33.659Z,98459.00
2023-05-12T13:07:06.033Z,98464.00
2023-05-12T13:09:37.068Z,98464.00
2023-05-12T13:12:08.533Z,98471.00
2023-05-12T13:14:39.448Z,98459.00
2023-05-12T13:17:10.554Z,98473.00
2023-05-12T13:19:42.010Z,98473.00
2023-05-12T13:22:12.921Z,98473.00
2023-05-12T13:24:44.156Z,98475.00
2023-05-12T13:27:15.076Z,98472.00
2023-05-12T13:29:48.693Z,98467.00
2023-05-12T13:32:20.876Z,98474.00
2023-05-12T13:34:51.867Z,98462.00
2023-05-12T13:37:22.952Z,98477.00
2023-05-12T13:39:53.988Z,98478.00
2023-05-12T13:42:24.870Z,98478.00
2023-05-12T13:44:55.912Z,98474.00
2023-05-12T13:47:27.870Z,98473.00
2023-05-12T13:49:59.013Z,98475.00
2023-05-12T13:52:29.978Z,98476.00
2023-05-12T13:55:00.945Z,98477.00
2023-05-12T13:57:31.886Z,98473.00
2023-05-12T14:00:03.220Z,98468.00
2023-05-12T14:02:34.424Z,98470.00
2023-05-12T14:05:05.897Z,98473.00
2023-05-12T14:07:36.889Z,98464.00
2023-05-12T14:10:08.233Z,98463.00
2023-05-12T14:12:40.600Z,98466.00
2023-05-12T14:17:50.651Z,98462.00
2023-05-12T14:20:21.652Z,98455.00
2023-05-12T14:22:52.629Z,98465.00
2023-05-12T14:25:25.211Z,98470.00
2023-05-12T14:27:56.828Z,98470.00
2023-05-12T14:30:28.079Z,98473.00
2023-05-12T14:32:59.062Z,98471.00
2023-05-12T14:35:30.760Z,98463.00
2023-05-12T14:38:01.690Z,98465.00
2023-05-12T14:40:32.707Z,98463.00
2023-05-12T14:43:03.709Z,98464.00
2023-05-12T14:45:34.628Z,98466.00
2023-05-12T14:48:06.052Z,98467.00
2023-05-12T14:50:40.399Z,98484.00
2023-05-12T14:53:11.418Z,98469.00
2023-05-12T14:55:42.361Z,98461.00
2023-05-12T14:58:14.408Z,98464.00
2023-05-12T15:00:47.249Z,98475.00
2023-05-12T15:03:19.626Z,98488.00
2023-05-12T15:08:24.657Z,98473.00
2023-05-12T15:10:55.610Z,98474.00
2023-05-12T15:13:26.657Z,98477.00
2023-05-12T15:15:57.600Z,98480.00
2023-05-12T15:18:28.555Z,98479.00
2023-05-12T15:20:59.520Z,98478.00
2023-05-12T15:23:30.503Z,98473.00
2023-05-12T15:26:20.801Z,98477.00
2023-05-12T15:28:58.553Z,98486.00
2023-05-12T15:31:30.388Z,98478.00
2023-05-12T15:34:01.368Z,98477.00
2023-05-12T15:36:32.504Z,98476.00
2023-05-12T15:39:03.534Z,98491.00
2023-05-12T15:41:34.421Z,98488.00
2023-05-12T15:44:06.315Z,98491.00
2023-05-12T15:46:37.545Z,98492.00
2023-05-12T15:49:09.123Z,98498.00
2023-05-12T15:51:40.046Z,98488.00
2023-05-12T15:54:11.442Z,98496.00
2023-05-12T15:56:43.104Z,98501.00
2023-05-12T15:59:14.029Z,98492.00
2023-05-12T16:01:45.476Z,98490.00
2023-05-12T16:04:16.491Z,98496.00
2023-05-12T16:06:47.697Z,98490.00
2023-05-12T16:09:18.733Z,98492.00
2023-05-12T16:11:50.584Z,98481.00
2023-05-12T16:14:22.065Z,98493.00
2023-05-12T16:16:53.138Z,98501.00
2023-05-12T16:19:24.582Z,98515.00
2023-05-12T16:21:57.854Z,98492.00
2023-05-12T16:24:28.839Z,98503.00
2023-05-12T16:27:00.312Z,98509.00
2023-05-12T16:29:31.411Z,98499.00
2023-05-12T16:32:02.348Z,98509.00
2023-05-12T16:34:33.363Z,98496.00
2023-05-12T16:37:04.641Z,98505.00
2023-05-12T16:39:36.857Z,98497.00
2023-05-12T16:42:07.962Z,98502.00
2023-05-12T16:44:38.859Z,98520.00
2023-05-12T16:47:09.856Z,98499.00
2023-05-12T16:49:40.845Z,98498.00
2023-05-12T16:52:12.583Z,98502.00
2023-05-12T16:54:47.212Z,98488.00
2023-05-12T16:57:18.753Z,98497.00
2023-05-12T16:59:49.800Z,98504.00
2023-05-12T17:02:20.802Z,98504.00
2023-05-12T17:04:51.892Z,98512.00
2023-05-12T17:07:23.446Z,98503.00
2023-05-12T17:09:54.339Z,98505.00
2023-05-12T17:12:25.300Z,98506.00
2023-05-12T17:15:06.682Z,98502.00
2023-05-12T17:17:38.810Z,98509.00
2023-05-12T17:20:11.660Z,98515.00
2023-05-12T17:22:44.430Z,98521.00
2023-05-12T17:25:15.559Z,98523.00
2023-05-12T17:27:48.072Z,98526.00
2023-05-12T17:30:19.200Z,98548.00
2023-05-12T17:32:50.658Z,98522.00
2023-05-12T17:35:22.022Z,98536.00
2023-05-12T17:37:55.387Z,98543.00
2023-05-12T17:40:26.656Z,98543.00
2023-05-12T17:42:57.552Z,98543.00
2023-05-12T17:45:28.802Z,98555.00
2023-05-12T17:48:00.130Z,98542.00
2023-05-12T17:50:31.075Z,98547.00
2023-05-12T17:53:01.954Z,98549.00
2023-05-12T17:55:33.380Z,98550.00
2023-05-12T17:58:04.316Z,98556.00
2023-05-12T18:00:35.346Z,98583.00
2023-05-12T18:03:06.402Z,98563.00
2023-05-12T18:05:37.456Z,98560.00
2023-05-12T18:08:08.868Z,98569.00
2023-05-12T18:10:41.369Z,98564.00
2023-05-12T18:13:13.081Z,98557.00
2023-05-12T18:15:44.173Z,98560.00
2023-05-12T18:18:15.141Z,98566.00
2023-05-12T18:20:46.113Z,98567.00
2023-05-12T18:23:17.035Z,98555.00
2023-05-12T18:25:47.987Z,98565.00
2023-05-12T18:28:18.956Z,98568.00
2023-05-12T18:30:49.883Z,98564.00
2023-05-12T18:33:23.605Z,98572.00
2023-05-12T18:35:54.656Z,98563.00
2023-05-12T18:38:26.895Z,98571.00
2023-05-12T18:40:57.807Z,98570.00
2023-05-12T18:43:28.756Z,98572.00
2023-05-12T18:45:59.796Z,98563.00
2023-05-12T18:48:31.289Z,98559.00
2023-05-12T18:51:02.325Z,98574.00
2023-05-12T18:53:33.254Z,98576.00
2023-05-12T18:56:04.316Z,98579.00
2023-05-12T18:58:35.623Z,98585.00
2023-05-12T19:01:06.895Z,98589.00
2023-05-12T19:03:38.107Z,98614.00
2023-05-12T19:06:09.013Z,98592.00
2023-05-12T19:08:40.021Z,98596.00
2023-05-12T19:11:10.904Z,98591.00
2023-05-12T19:13:45.186Z,98602.00
2023-05-12T19:16:16.613Z,98598.00
2023-05-12T19:18:48.375Z,98604.00
2023-05-12T19:21:19.463Z,98608.00
2023-05-12T19:23:50.411Z,98615.00
2023-05-12T19:26:21.332Z,98615.00
2023-05-12T19:28:52.296Z,98614.00
2023-05-12T19:31:23.347Z,98616.00
2023-05-12T19:33:54.789Z,98620.00
2023-05-12T19:36:28.439Z,98622.00
2023-05-12T19:39:01.941Z,98627.00
2023-05-12T19:41:33.084Z,98617.00
2023-05-12T19:44:04.243Z,98624.00
2023-05-12T19:46:35.319Z,98629.00
2023-05-12T19:49:06.748Z,98625.00
2023-05-12T19:51:37.695Z,98629.00
2023-05-12T19:54:13.428Z,98627.00
2023-05-12T19:56:44.415Z,98642.00
2023-05-12T19:59:15.375Z,98627.00
2023-05-12T20:01:46.959Z,98629.00
2023-05-12T20:04:17.941Z,98632.00
2023-05-12T20:06:48.981Z,98626.00
2023-05-12T20:09:22.074Z,98624.00
2023-05-12T20:11:53.215Z,98629.00
2023-05-12T20:14:25.446Z,98637.00
2023-05-12T20:16:56.588Z,98637.00
2023-05-12T20:19:27.826Z,98637.00
2023-05-12T20:21:59.393Z,98648.00
2023-05-12T20:24:30.862Z,98663.00
2023-05-12T20:27:01.899Z,98652.00
2023-05-12T20:29:32.799Z,98647.00
2023-05-12T20:32:03.912Z,98654.00
2023-05-12T20:34:34.840Z,98650.00
2023-05-12T20:37:06.236Z,98655.00
2023-05-12T20:39:37.108Z,98654.00
2023-05-12T20:42:10.056Z,98659.00
2023-05-12T20:44:41.010Z,98659.00
2023-05-12T20:47:13.039Z,98661.00
2023-05-12T20:49:45.288Z,98669.00
2023-05-12T20:52:19.386Z,98670.00
2023-05-12T20:54:57.201Z,98672.00
2023-05-12T20:57:28.643Z,98665.00
2023-05-12T20:59:59.548Z,98671.00
2023-05-12T21:02:30.582Z,98672.00
2023-05-12T21:05:03.660Z,98674.00
2023-05-12T21:07:34.786Z,98707.00
2023-05-12T21:10:06.424Z,98678.00
2023-05-12T21:12:39.997Z,98686.00
2023-05-12T21:15:13.793Z,98689.00
2023-05-12T21:17:47.173Z,98691.00
2023-05-12T21:20:20.952Z,98685.00
2023-05-12T21:22:52.054Z,98689.00
2023-05-12T21:25:23.791Z,98687.00
2023-05-12T21:27:57.775Z,98691.00
2023-05-12T21:30:28.713Z,98684.00
2023-05-12T21:32:59.680Z,98693.00
2023-05-12T21:35:30.897Z,98699.00
2023-05-12T21:38:01.899Z,98699.00
2023-05-12T21:40:32.905Z,98688.00
2023-05-12T21:43:04.081Z,98691.00
2023-05-12T21:45:35.032Z,98698.00
2023-05-12T21:48:06.417Z,98694.00
2023-05-12T21:50:37.455Z,98688.00
2023-05-12T21:53:08.345Z,98689.00
2023-05-12T21:55:41.248Z,98691.00
2023-05-12T21:58:12.103Z,98694.00
2023-05-12T22:00:43.229Z,98686.00
2023-05-12T22:03:14.147Z,98691.00
2023-05-12T22:05:45.034Z,98707.00
2023-05-12T22:08:16.366Z,98694.00
2023-05-12T22:10:47.412Z,98695.00
2023-05-12T22:13:19.231Z,98686.00
2023-05-12T22:15:50.202Z,98694.00
2023-05-12T22:18:21.366Z,98689.00
2023-05-12T22:20:52.513Z,98694.00
2023-05-12T22:23:23.499Z,98703.00
2023-05-12T22:25:54.468Z,98695.00
2023-05-12T22:28:25.337Z,98694.00
2023-05-12T22:30:56.264Z,98706.00
2023-05-12T22:33:27.332Z,98705.00
2023-05-12T22:36:00.102Z,98702.00
2023-05-12T22:38:31.034Z,98695.00
2023-05-12T22:41:02.180Z,98703.00
2023-05-12T22:43:33.097Z,98695.00
2023-05-12T22:46:05.987Z,98699.00
2023-05-12T22:48:39.560Z,98695.00
2023-05-12T22:51:10.801Z,98705.00
2023-05-12T22:53:41.850Z,98701.00
2023-05-12T22:56:12.738Z,98703.00
2023-05-12T22:58:43.587Z,98698.00
2023-05-12T23:01:14.558Z,98703.00
2023-05-12T23:03:45.756Z,98694.00
2023-05-12T23:06:16.651Z,98701.00
2023-05-12T23:08:47.828Z,98703.00
2023-05-12T23:11:18.829Z,98702.00
2023-05-12T23:13:49.735Z,98705.00
2023-05-12T23:16:20.759Z,98683.00
2023-05-12T23:18:51.787Z,98696.00
2023-05-12T23:21:22.783Z,98693.00
2023-05-12T23:23:53.700Z,98694.00
2023-05-12T23:26:24.610Z,98697.00
2023-05-12T23:28:55.621Z,98689.00
2023-05-12T23:31:26.930Z,98703.00
2023-05-12T23:33:57.869Z,98689.00
2023-05-12T23:36:28.756Z,98690.00
2023-05-12T23:38:59.684Z,98682.00
2023-05-12T23:41:31.823Z,98681.00
2023-05-12T23:44:03.438Z,98677.00
2023-05-12T23:46:34.476Z,98681.00
2023-05-12T23:49:05.577Z,98673.00
2023-05-12T23:51:36.541Z,98674.00
2023-05-12T23:54:08.164Z,98675.00
2023-05-12T23:56:39.057Z,98672.00
2023-05-12T23:59:09.964Z,98674.00
